createdAt,value
2023-02-02T00:00:16.763Z,100
2023-02-02T00:05:16.436Z,100
2023-02-02T00:10:16.438Z,100
2023-02-02T00:15:17.616Z,100
2023-02-02T00:20:16.420Z,100
2023-02-02T00:25:16.518Z,100
2023-02-02T00:30:16.677Z,100
2023-02-02T00:35:16.671Z,100
2023-02-02T00:40:16.414Z,100
2023-02-02T00:45:16.617Z,100
2023-02-02T00:50:16.479Z,100
2023-02-02T00:55:17.424Z,100
2023-02-02T01:00:16.605Z,100
2023-02-02T01:05:16.736Z,100
2023-02-02T01:10:16.903Z,100
2023-02-02T01:15:16.589Z,100
2023-02-02T01:20:17.059Z,100
2023-02-02T01:25:16.654Z,100
2023-02-02T01:30:16.923Z,100
2023-02-02T01:35:16.804Z,100
2023-02-02T01:40:16.746Z,100
2023-02-02T01:45:16.852Z,100
2023-02-02T01:50:16.706Z,100
2023-02-02T01:55:16.768Z,100
2023-02-02T02:00:16.969Z,100
2023-02-02T02:05:16.860Z,100
2023-02-02T02:10:16.819Z,100
2023-02-02T02:15:17.111Z,100
2023-02-02T02:20:17.108Z,100
2023-02-02T02:25:16.918Z,99
2023-02-02T02:30:16.928Z,99
2023-02-02T02:35:16.844Z,98
2023-02-02T02:40:16.949Z,99
2023-02-02T02:45:17.184Z,98
2023-02-02T02:50:17.037Z,98
2023-02-02T02:55:16.967Z,98
2023-02-02T03:00:16.952Z,97
2023-02-02T03:05:17.109Z,97
2023-02-02T03:10:16.954Z,98
2023-02-02T03:15:17.095Z,97
2023-02-02T03:20:17.079Z,96
2023-02-02T03:25:17.132Z,96
2023-02-02T03:30:18.271Z,95
2023-02-02T03:35:18.155Z,94
2023-02-02T03:40:18.062Z,93
2023-02-02T03:45:18.728Z,93
2023-02-02T03:50:18.103Z,91
2023-02-02T03:55:18.352Z,90
2023-02-02T04:00:18.177Z,89
2023-02-02T04:05:18.085Z,89
2023-02-02T04:10:18.049Z,88
2023-02-02T04:15:18.325Z,88
2023-02-02T04:20:18.137Z,87
2023-02-02T04:25:18.262Z,87
2023-02-02T04:30:16.382Z,87
2023-02-02T04:35:16.381Z,88
2023-02-02T04:40:16.707Z,88
2023-02-02T04:45:16.502Z,88
2023-02-02T04:50:16.239Z,88
2023-02-02T04:55:16.208Z,88
2023-02-02T05:00:17.750Z,88
2023-02-02T05:05:17.367Z,88
2023-02-02T05:10:17.334Z,88
2023-02-02T05:15:17.360Z,87
2023-02-02T05:20:17.296Z,87
2023-02-02T05:25:17.570Z,87
2023-02-02T05:30:17.665Z,89
2023-02-02T05:35:17.671Z,88
2023-02-02T05:40:17.280Z,89
2023-02-02T05:45:17.737Z,88
2023-02-02T05:50:17.507Z,88
2023-02-02T05:55:17.434Z,88
2023-02-02T06:00:17.477Z,88
2023-02-02T06:05:17.871Z,88
2023-02-02T06:10:17.663Z,88
2023-02-02T06:15:18.045Z,87
2023-02-02T06:20:17.486Z,86
2023-02-02T06:25:17.593Z,87
2023-02-02T06:30:17.599Z,86
2023-02-02T06:35:17.574Z,86
2023-02-02T06:40:17.597Z,87
2023-02-02T06:45:17.826Z,87
2023-02-02T06:50:17.550Z,87
2023-02-02T06:55:17.884Z,87
2023-02-02T07:00:19.721Z,88
2023-02-02T07:05:17.698Z,87
2023-02-02T07:11:10.941Z,88
2023-02-02T07:15:18.194Z,87
2023-02-02T07:20:17.637Z,88
2023-02-02T07:25:17.781Z,87
2023-02-02T07:30:17.959Z,87
2023-02-02T07:35:17.819Z,87
2023-02-02T07:40:18.115Z,86
2023-02-02T07:45:26.827Z,86
2023-02-02T07:50:18.026Z,87
2023-02-02T07:55:17.906Z,87
2023-02-02T08:00:17.869Z,88
2023-02-02T08:05:17.823Z,88
2023-02-02T08:10:17.986Z,88
2023-02-02T08:15:18.042Z,87
2023-02-02T08:20:17.872Z,88
2023-02-02T08:25:18.066Z,87
2023-02-02T08:30:17.940Z,87
2023-02-02T08:35:17.956Z,87
2023-02-02T08:40:19.645Z,87
2023-02-02T08:46:13.480Z,87
2023-02-02T08:50:18.288Z,87
2023-02-02T08:55:18.230Z,88
2023-02-02T09:00:17.975Z,88
2023-02-02T09:05:18.095Z,88
2023-02-02T09:10:18.077Z,88
2023-02-02T09:15:18.220Z,89
2023-02-02T09:20:20.278Z,88
2023-02-02T09:25:18.099Z,89
2023-02-02T09:30:18.232Z,88
2023-02-02T09:35:18.134Z,88
2023-02-02T09:40:18.079Z,88
2023-02-02T09:45:18.398Z,88
2023-02-02T09:50:18.166Z,88
2023-02-02T09:55:18.195Z,88
2023-02-02T10:00:16.512Z,88
2023-02-02T10:05:16.420Z,89
2023-02-02T10:10:17.178Z,89
2023-02-02T10:15:16.323Z,89
2023-02-02T10:20:16.273Z,89
2023-02-02T10:25:16.277Z,89
2023-02-02T10:30:16.521Z,90
2023-02-02T10:35:16.395Z,89
2023-02-02T10:40:16.483Z,90
2023-02-02T10:45:16.479Z,90
2023-02-02T10:50:16.356Z,89
2023-02-02T10:55:16.570Z,90
2023-02-02T11:00:16.615Z,90
2023-02-02T11:05:16.405Z,90
2023-02-02T11:10:16.723Z,91
2023-02-02T11:15:17.084Z,91
2023-02-02T11:20:16.507Z,92
2023-02-02T11:25:16.461Z,91
2023-02-02T11:30:16.724Z,91
2023-02-02T11:35:16.754Z,92
2023-02-02T11:40:16.713Z,93
2023-02-02T11:45:16.618Z,93
2023-02-02T11:50:16.699Z,93
2023-02-02T11:55:16.694Z,94
2023-02-02T12:00:16.603Z,94
2023-02-02T12:05:16.618Z,94
2023-02-02T12:10:16.667Z,94
2023-02-02T12:15:16.659Z,95
2023-02-02T12:20:16.776Z,94
2023-02-02T12:25:16.729Z,94
2023-02-02T12:30:16.886Z,93
2023-02-02T12:35:16.708Z,94
2023-02-02T12:40:16.657Z,95
2023-02-02T12:45:16.863Z,95
2023-02-02T12:50:16.837Z,94
2023-02-02T12:55:16.769Z,94
2023-02-02T13:00:16.955Z,95
2023-02-02T13:05:16.755Z,95
2023-02-02T13:10:16.738Z,94
2023-02-02T13:15:16.927Z,95
2023-02-02T13:20:16.811Z,96
2023-02-02T13:25:16.876Z,96
2023-02-02T13:30:17.075Z,95
2023-02-02T13:35:17.031Z,96
2023-02-02T13:40:16.850Z,98
2023-02-02T13:45:17.138Z,97
2023-02-02T13:50:16.898Z,95
2023-02-02T13:55:16.960Z,94
2023-02-02T14:00:17.128Z,96
2023-02-02T14:05:16.922Z,98
2023-02-02T14:10:17.088Z,94
2023-02-02T14:15:17.169Z,95
2023-02-02T14:20:16.904Z,94
2023-02-02T14:25:16.935Z,93
2023-02-02T14:30:17.116Z,93
2023-02-02T14:35:16.999Z,93
2023-02-02T14:40:17.198Z,94
2023-02-02T14:45:17.279Z,98
2023-02-02T14:50:17.025Z,98
2023-02-02T14:55:17.126Z,100
2023-02-02T15:00:17.515Z,100
2023-02-02T15:05:17.152Z,100
2023-02-02T15:10:17.166Z,100
2023-02-02T15:15:17.275Z,100
2023-02-02T15:20:17.246Z,100
2023-02-02T15:25:17.256Z,100
2023-02-02T15:30:17.193Z,100
2023-02-02T15:35:17.211Z,100
2023-02-02T15:40:17.157Z,100
2023-02-02T15:45:17.309Z,100
2023-02-02T15:50:17.454Z,100
2023-02-02T15:55:17.493Z,100
2023-02-02T16:00:17.278Z,100
2023-02-02T16:05:17.340Z,100
2023-02-02T16:10:17.289Z,100
2023-02-02T16:15:17.732Z,100
2023-02-02T16:20:17.415Z,100
2023-02-02T16:25:17.387Z,100
2023-02-02T16:30:17.522Z,100
2023-02-02T16:35:17.431Z,100
2023-02-02T16:40:17.384Z,100
2023-02-02T16:45:17.548Z,100
2023-02-02T16:50:17.483Z,100
2023-02-02T16:55:17.507Z,100
2023-02-02T17:00:17.661Z,100
2023-02-02T17:05:17.789Z,100
2023-02-02T17:10:17.542Z,100
2023-02-02T17:15:17.675Z,100
2023-02-02T17:20:17.569Z,100
2023-02-02T17:25:17.556Z,100
2023-02-02T17:30:17.821Z,100
2023-02-02T17:35:17.587Z,100
2023-02-02T17:40:17.690Z,100
2023-02-02T17:45:17.863Z,100
2023-02-02T17:50:17.773Z,100
2023-02-02T17:55:17.616Z,100
2023-02-02T18:00:17.748Z,98
2023-02-02T18:05:17.845Z,98
2023-02-02T18:10:17.799Z,98
2023-02-02T18:15:17.929Z,99
2023-02-02T18:20:17.723Z,98
2023-02-02T18:25:17.704Z,99
2023-02-02T18:30:17.674Z,99
2023-02-02T18:35:17.725Z,99
2023-02-02T18:40:17.913Z,98
2023-02-02T18:45:17.978Z,100
2023-02-02T18:50:17.814Z,100
2023-02-02T18:55:18.041Z,99
2023-02-02T19:00:17.908Z,98
2023-02-02T19:05:17.765Z,98
2023-02-02T19:10:18.082Z,97
2023-02-02T19:15:17.949Z,96
2023-02-02T19:20:18.375Z,96
2023-02-02T19:25:17.920Z,98
2023-02-02T19:30:17.851Z,96
2023-02-02T19:35:18.404Z,97
2023-02-02T19:40:18.141Z,97
2023-02-02T19:45:18.145Z,96
2023-02-02T19:50:18.063Z,96
2023-02-02T19:55:18.266Z,94
2023-02-02T20:00:18.323Z,93
2023-02-02T20:05:18.053Z,97
2023-02-02T20:10:18.031Z,92
2023-02-02T20:15:18.217Z,93
2023-02-02T20:20:18.143Z,89
2023-02-02T20:25:18.100Z,94
2023-02-02T20:30:18.169Z,94
2023-02-02T20:35:18.083Z,96
2023-02-02T20:40:18.089Z,98
2023-02-02T20:45:18.521Z,98
2023-02-02T20:50:18.202Z,95
2023-02-02T20:55:18.328Z,95
2023-02-02T21:00:18.528Z,96
2023-02-02T21:05:16.298Z,95
2023-02-02T21:10:16.387Z,96
2023-02-02T21:15:16.590Z,99
2023-02-02T21:20:16.173Z,98
2023-02-02T21:25:16.292Z,96
2023-02-02T21:30:16.745Z,99
2023-02-02T21:35:16.257Z,99
2023-02-02T21:40:16.398Z,100
2023-02-02T21:45:16.371Z,100
2023-02-02T21:50:16.351Z,100
2023-02-02T21:55:16.371Z,100
2023-02-02T22:00:16.624Z,100
2023-02-02T22:05:16.385Z,100
2023-02-02T22:10:16.541Z,100
2023-02-02T22:15:16.858Z,100
2023-02-02T22:20:16.294Z,100
2023-02-02T22:25:16.609Z,100
2023-02-02T22:30:16.925Z,100
2023-02-02T22:35:16.549Z,100
2023-02-02T22:40:16.459Z,100
2023-02-02T22:45:16.576Z,100
2023-02-02T22:50:16.669Z,100
2023-02-02T22:55:16.585Z,100
2023-02-02T23:00:16.529Z,100
2023-02-02T23:05:16.568Z,100
2023-02-02T23:10:16.497Z,100
2023-02-02T23:15:16.899Z,100
2023-02-02T23:20:17.382Z,100
2023-02-02T23:25:16.703Z,100
2023-02-02T23:30:16.770Z,100
2023-02-02T23:35:16.641Z,100
2023-02-02T23:40:16.867Z,100
2023-02-02T23:45:17.161Z,100
2023-02-02T23:50:16.645Z,100
2023-02-02T23:55:16.922Z,100
